Terminal Aerodrome Forecast
Issued by NWS

Home | Current Version | Previous Version | Text Only | Print | Product List | Glossary On
Versions: 1 2 3 4 5 6 7 8 9 10 11 12 13 14 15 16 17 18 19 20 21 22 23
000
FTAK31 PAJN 140500
TAFASI
TAF
PASI 140520Z 1406/1506 25004KT P6SM -RA BKN005 BKN015 OVC025
      TEMPO 1408/1412 6SM -RA BR OVC015
     FM141200 25004KT 5SM BR VCSH SCT003 BKN010 OVC025
     FM142000 28006KT P6SM VCSH SCT015 OVC040
     FM150000 29007KT P6SM VCSH BKN050 OVC100=

USA.gov is the U.S. government's official web portal to all federal, state and local government web resources and services.